Time;durP1;ratioP1;P1;durP2;ratioP2;P2;SDS_P1;SDS_P2;PMS_P1;PMS_P2;Temp;Humidity;BMP_temperature;BMP_pressure;BME280_temperature;BME280_humidity;BME280_pressure;Samples;Min_cycle;Max_cycle;Signal;HPM_P1;HPM_P2
2023/12/10 00:00:28;;;;;;;;;;;8.50;99.90;;;;;;5116758;27;19924;-89
2023/12/10 00:02:54;;;;;;;;;;;8.50;99.90;;;;;;5105825;27;19924;-82
2023/12/10 00:05:20;;;;;;;;;;;8.40;99.90;;;;;;5104944;28;19946;-83
2023/12/10 00:07:45;;;;;;;;;;;8.40;99.90;;;;;;5121607;27;20006;-82
2023/12/10 00:10:11;;;;;;;;;;;8.40;99.90;;;;;;5120109;27;19985;-83
2023/12/10 00:12:36;;;;;;;;;;;8.30;99.90;;;;;;5119856;27;19928;-83
2023/12/10 00:15:03;;;;;;;;;;;8.30;99.90;;;;;;5104389;27;19924;-88
2023/12/10 00:17:29;;;;;;;;;;;8.40;99.90;;;;;;5109620;27;20010;-83
2023/12/10 00:19:55;;;;;;;;;;;8.40;99.90;;;;;;5129821;27;19931;-82
2023/12/10 00:22:21;;;;;;;;;;;8.40;99.90;;;;;;5117965;28;20362;-82
2023/12/10 00:24:47;;;;;;;;;;;8.40;99.90;;;;;;5115623;27;19928;-82
2023/12/10 00:27:13;;;;;;;;;;;8.40;99.90;;;;;;5115026;27;19930;-82
2023/12/10 00:29:38;;;;;;;;;;;8.30;99.90;;;;;;5100798;27;19924;-83
2023/12/10 00:32:04;;;;;;;;;;;8.30;99.90;;;;;;5116090;27;19968;-87
2023/12/10 00:34:30;;;;;;;;;;;8.30;99.90;;;;;;5121083;27;19923;-82
2023/12/10 00:36:55;;;;;;;;;;;8.30;99.90;;;;;;5121487;27;19975;-83
2023/12/10 00:39:21;;;;;;;;;;;8.40;99.90;;;;;;5122948;27;19934;-82
2023/12/10 00:41:46;;;;;;;;;;;8.40;99.90;;;;;;5114068;27;19989;-82
2023/12/10 00:44:12;;;;;;;;;;;8.40;99.90;;;;;;5109639;28;19923;-82
2023/12/10 00:46:37;;;;;;;;;;;8.50;99.90;;;;;;5117943;27;19935;-81
2023/12/10 00:49:03;;;;;;;;;;;8.50;99.90;;;;;;5095733;28;19973;-82
2023/12/10 00:51:29;;;;;;;;;;;8.50;99.90;;;;;;5115701;27;19928;-85
2023/12/10 00:53:54;;;;;;;;;;;8.40;99.90;;;;;;5124748;27;20267;-84
2023/12/10 00:56:20;;;;;;;;;;;8.40;99.90;;;;;;5117126;27;20606;-82
2023/12/10 00:58:46;;;;;;;;;;;8.40;99.90;;;;;;5123551;27;20018;-82
2023/12/10 01:01:11;;;;;;;;;;;8.30;99.90;;;;;;5114737;27;19928;-82
2023/12/10 01:03:37;;;;;;;;;;;8.30;99.90;;;;;;5116582;27;19975;-81
2023/12/10 01:06:05;;;;;;;;;;;8.30;99.90;;;;;;5112490;28;19978;-84
2023/12/10 01:08:31;;;;;;;;;;;8.20;99.90;;;;;;5111918;28;19932;-83
2023/12/10 01:10:59;;;;;;;;;;;8.20;99.90;;;;;;5115101;27;19938;-83
2023/12/10 01:13:25;;;;;;;;;;;8.20;99.90;;;;;;5133264;27;19935;-84
2023/12/10 01:15:57;;;;;;;;;;;8.20;99.90;;;;;;5114015;27;19924;-82
2023/12/10 01:18:23;;;;;;;;;;;8.10;99.90;;;;;;5106621;27;20335;-80
2023/12/10 01:20:48;;;;;;;;;;;8.10;99.90;;;;;;5108627;28;19936;-86
2023/12/10 01:23:17;;;;;;;;;;;8.00;99.90;;;;;;5111414;27;19927;-85
2023/12/10 01:25:43;;;;;;;;;;;8.00;99.90;;;;;;5110856;27;19927;-84
2023/12/10 01:28:12;;;;;;;;;;;8.00;99.90;;;;;;5110348;27;20026;-82
2023/12/10 01:30:37;;;;;;;;;;;7.90;99.90;;;;;;5111967;27;19924;-83
2023/12/10 01:33:04;;;;;;;;;;;7.90;99.90;;;;;;5115797;27;19977;-83
2023/12/10 01:35:29;;;;;;;;;;;7.90;99.90;;;;;;5110461;27;19931;-84
2023/12/10 01:37:55;;;;;;;;;;;7.80;99.90;;;;;;5113038;28;19931;-82
2023/12/10 01:40:21;;;;;;;;;;;7.90;99.90;;;;;;5114486;28;19924;-82
2023/12/10 01:42:47;;;;;;;;;;;7.90;99.90;;;;;;5105515;27;20018;-82
2023/12/10 01:45:13;;;;;;;;;;;7.90;99.90;;;;;;5101360;28;19927;-84
2023/12/10 01:47:39;;;;;;;;;;;7.90;99.90;;;;;;5114267;28;19930;-85
2023/12/10 01:50:05;;;;;;;;;;;7.90;99.90;;;;;;5110944;28;19935;-83
2023/12/10 01:52:31;;;;;;;;;;;7.90;99.90;;;;;;5112736;28;19923;-83
2023/12/10 01:54:58;;;;;;;;;;;7.80;99.90;;;;;;5112852;27;19928;-83
2023/12/10 01:57:24;;;;;;;;;;;7.90;99.90;;;;;;5111540;27;19928;-83
2023/12/10 01:59:50;;;;;;;;;;;7.90;99.90;;;;;;5106171;27;20401;-83
2023/12/10 02:02:16;;;;;;;;;;;7.90;99.90;;;;;;5113670;27;20052;-83
2023/12/10 02:04:41;;;;;;;;;;;7.90;99.90;;;;;;5109926;27;20010;-84
2023/12/10 02:07:07;;;;;;;;;;;7.90;99.90;;;;;;5109133;27;19976;-84
2023/12/10 02:09:33;;;;;;;;;;;7.90;99.90;;;;;;5111088;27;19935;-85
2023/12/10 02:11:58;;;;;;;;;;;7.90;99.90;;;;;;5109335;27;20271;-83
2023/12/10 02:14:24;;;;;;;;;;;7.90;99.90;;;;;;5116140;27;19931;-84
2023/12/10 02:16:50;;;;;;;;;;;7.80;99.90;;;;;;5109049;27;20278;-85
2023/12/10 02:19:15;;;;;;;;;;;7.90;99.90;;;;;;5105383;28;19924;-82
2023/12/10 02:21:41;;;;;;;;;;;7.90;99.90;;;;;;5109930;27;19927;-88
2023/12/10 02:24:09;;;;;;;;;;;7.90;99.90;;;;;;5110116;27;19932;-82
2023/12/10 02:26:36;;;;;;;;;;;7.80;99.90;;;;;;5108285;28;20018;-85
2023/12/10 02:29:03;;;;;;;;;;;7.90;99.90;;;;;;5105124;27;19924;-83
2023/12/10 02:31:29;;;;;;;;;;;7.90;99.90;;;;;;5114669;27;20895;-86
2023/12/10 02:33:55;;;;;;;;;;;7.90;99.90;;;;;;5107588;27;19928;-83
2023/12/10 02:36:21;;;;;;;;;;;7.80;99.90;;;;;;5111317;27;19928;-83
2023/12/10 02:38:47;;;;;;;;;;;7.80;99.90;;;;;;5110059;27;20337;-84
2023/12/10 02:41:13;;;;;;;;;;;7.80;99.90;;;;;;5105439;27;19928;-85
2023/12/10 02:43:38;;;;;;;;;;;7.90;99.90;;;;;;5113340;27;19947;-82
2023/12/10 02:46:04;;;;;;;;;;;7.80;99.90;;;;;;5108477;27;19990;-82
2023/12/10 02:48:30;;;;;;;;;;;7.80;99.90;;;;;;5115804;27;19924;-83
2023/12/10 02:50:55;;;;;;;;;;;7.90;99.90;;;;;;5108703;27;19931;-87
2023/12/10 02:53:21;;;;;;;;;;;7.80;99.90;;;;;;5110675;27;19928;-82
2023/12/10 02:55:47;;;;;;;;;;;7.80;99.90;;;;;;5115860;27;19935;-82
2023/12/10 02:58:12;;;;;;;;;;;7.80;99.90;;;;;;5115990;27;19928;-84
2023/12/10 03:00:38;;;;;;;;;;;7.80;99.90;;;;;;5112800;27;20018;-83
2023/12/10 03:03:04;;;;;;;;;;;7.80;99.90;;;;;;5110919;28;19928;-86
2023/12/10 03:05:30;;;;;;;;;;;7.80;99.90;;;;;;5112788;27;20382;-85
2023/12/10 03:07:55;;;;;;;;;;;7.80;99.90;;;;;;5115420;27;19966;-82
2023/12/10 03:10:21;;;;;;;;;;;7.80;99.90;;;;;;5114019;27;20030;-83
2023/12/10 03:12:46;;;;;;;;;;;7.80;99.90;;;;;;5113874;27;19935;-83
2023/12/10 03:15:12;;;;;;;;;;;7.80;99.90;;;;;;5113022;27;19927;-85
2023/12/10 03:17:38;;;;;;;;;;;7.80;99.90;;;;;;5108048;28;19963;-84
2023/12/10 03:20:04;;;;;;;;;;;7.70;99.90;;;;;;5132220;27;19930;-84
2023/12/10 03:22:30;;;;;;;;;;;7.70;99.90;;;;;;5116515;27;19928;-83
2023/12/10 03:24:56;;;;;;;;;;;7.80;99.90;;;;;;5107428;28;20272;-83
2023/12/10 03:27:21;;;;;;;;;;;7.70;99.90;;;;;;5118490;28;20374;-84
2023/12/10 03:29:47;;;;;;;;;;;7.80;99.90;;;;;;5107293;27;19928;-83
2023/12/10 03:32:13;;;;;;;;;;;7.70;99.90;;;;;;5119576;28;20378;-84
2023/12/10 03:34:39;;;;;;;;;;;7.70;99.90;;;;;;5111799;27;20015;-84
2023/12/10 03:37:04;;;;;;;;;;;7.70;99.90;;;;;;5112720;28;20002;-82
2023/12/10 03:39:30;;;;;;;;;;;7.70;99.90;;;;;;5112753;28;19930;-83
2023/12/10 03:41:55;;;;;;;;;;;7.70;99.90;;;;;;5109852;28;20371;-83
2023/12/10 03:44:21;;;;;;;;;;;7.70;99.90;;;;;;5116599;28;19979;-84
2023/12/10 03:46:47;;;;;;;;;;;7.70;99.90;;;;;;5119800;28;19928;-82
2023/12/10 03:49:12;;;;;;;;;;;7.70;99.90;;;;;;5116287;28;20366;-83
2023/12/10 03:51:38;;;;;;;;;;;7.70;99.90;;;;;;5111089;28;20322;-82
2023/12/10 03:54:03;;;;;;;;;;;7.70;99.90;;;;;;5112914;28;19931;-83
2023/12/10 03:56:29;;;;;;;;;;;7.70;99.90;;;;;;5112805;28;19928;-85
2023/12/10 03:58:55;;;;;;;;;;;7.70;99.90;;;;;;5106318;28;20011;-84
2023/12/10 04:01:21;;;;;;;;;;;7.70;99.90;;;;;;5110088;28;20386;-84
2023/12/10 04:03:47;;;;;;;;;;;7.70;99.90;;;;;;5106944;28;19928;-83
2023/12/10 04:06:12;;;;;;;;;;;7.70;99.90;;;;;;5113014;28;19923;-83
2023/12/10 04:08:38;;;;;;;;;;;7.70;99.90;;;;;;5110022;28;19992;-83
2023/12/10 04:11:04;;;;;;;;;;;7.70;99.90;;;;;;5114771;28;19924;-82
2023/12/10 04:13:29;;;;;;;;;;;7.70;99.90;;;;;;5116105;28;19927;-85
2023/12/10 04:15:55;;;;;;;;;;;7.70;99.90;;;;;;5118689;27;19931;-83
2023/12/10 04:18:20;;;;;;;;;;;7.70;99.90;;;;;;5112561;27;20861;-87
2023/12/10 04:20:46;;;;;;;;;;;7.70;99.90;;;;;;5117205;27;19927;-83
2023/12/10 04:23:12;;;;;;;;;;;7.70;99.90;;;;;;5116644;27;20417;-84
2023/12/10 04:25:37;;;;;;;;;;;7.70;99.90;;;;;;5117042;27;20401;-85
2023/12/10 04:28:03;;;;;;;;;;;7.70;99.90;;;;;;5122581;27;19923;-84
2023/12/10 04:30:29;;;;;;;;;;;7.70;99.90;;;;;;5112539;27;19928;-84
2023/12/10 04:32:55;;;;;;;;;;;7.70;99.90;;;;;;5116723;27;19923;-83
2023/12/10 04:35:20;;;;;;;;;;;7.80;99.90;;;;;;5117610;27;19923;-85
2023/12/10 04:37:46;;;;;;;;;;;7.80;99.90;;;;;;5118018;27;20289;-84
2023/12/10 04:40:12;;;;;;;;;;;7.80;99.90;;;;;;5116541;27;19948;-84
2023/12/10 04:42:41;;;;;;;;;;;7.80;99.90;;;;;;5112824;27;19991;-82
2023/12/10 04:45:07;;;;;;;;;;;7.80;99.90;;;;;;5119591;27;19924;-85
2023/12/10 04:47:33;;;;;;;;;;;7.80;99.90;;;;;;5121848;27;19934;-83
2023/12/10 04:49:59;;;;;;;;;;;7.80;99.90;;;;;;5115261;27;19943;-85
2023/12/10 04:52:25;;;;;;;;;;;7.90;99.90;;;;;;5112785;27;19928;-82
2023/12/10 04:54:50;;;;;;;;;;;7.90;99.90;;;;;;5115416;28;19927;-83
2023/12/10 04:57:16;;;;;;;;;;;7.90;99.90;;;;;;5116757;27;19924;-84
2023/12/10 04:59:42;;;;;;;;;;;7.90;99.90;;;;;;5122120;27;19943;-87
2023/12/10 05:02:08;;;;;;;;;;;7.90;99.90;;;;;;5121489;27;19923;-84
2023/12/10 05:04:33;;;;;;;;;;;7.90;99.90;;;;;;5118391;27;20366;-82
2023/12/10 05:06:59;;;;;;;;;;;7.90;99.90;;;;;;5115199;27;19968;-83
2023/12/10 05:09:24;;;;;;;;;;;7.90;99.90;;;;;;5127451;27;19923;-82
2023/12/10 05:11:50;;;;;;;;;;;7.90;99.90;;;;;;5116716;27;19932;-84
2023/12/10 05:14:16;;;;;;;;;;;7.90;99.90;;;;;;5116409;27;19931;-83
2023/12/10 05:16:41;;;;;;;;;;;7.90;99.90;;;;;;5103429;27;20436;-83
2023/12/10 05:19:07;;;;;;;;;;;7.90;99.90;;;;;;5115074;28;19935;-84
2023/12/10 05:21:33;;;;;;;;;;;8.00;99.90;;;;;;5115083;27;20003;-83
2023/12/10 05:23:59;;;;;;;;;;;7.90;99.90;;;;;;5115321;27;20019;-84
2023/12/10 05:26:24;;;;;;;;;;;8.00;99.90;;;;;;5107179;28;20014;-84
2023/12/10 05:28:50;;;;;;;;;;;8.00;99.90;;;;;;5095641;28;19975;-83
2023/12/10 05:31:15;;;;;;;;;;;8.00;99.90;;;;;;5117566;27;19966;-83
2023/12/10 05:33:41;;;;;;;;;;;8.00;99.90;;;;;;5112872;27;19935;-83
2023/12/10 05:36:07;;;;;;;;;;;8.00;99.90;;;;;;5115889;28;20305;-82
2023/12/10 05:38:32;;;;;;;;;;;8.00;99.90;;;;;;5109859;27;19923;-85
2023/12/10 05:40:58;;;;;;;;;;;8.10;99.90;;;;;;5115034;28;19928;-82
2023/12/10 05:43:24;;;;;;;;;;;8.10;99.90;;;;;;5114493;28;20393;-83
2023/12/10 05:45:50;;;;;;;;;;;8.10;99.90;;;;;;5113716;28;19934;-83
2023/12/10 05:48:16;;;;;;;;;;;8.10;99.90;;;;;;5113034;28;20309;-84
2023/12/10 05:50:41;;;;;;;;;;;8.10;99.90;;;;;;5112664;28;20018;-85
2023/12/10 05:53:07;;;;;;;;;;;8.10;99.90;;;;;;5114847;28;20612;-83
2023/12/10 05:55:32;;;;;;;;;;;8.10;99.90;;;;;;5114286;28;19931;-86
2023/12/10 05:57:58;;;;;;;;;;;8.10;99.90;;;;;;5113952;28;19924;-85
2023/12/10 06:00:23;;;;;;;;;;;8.10;99.90;;;;;;5114003;28;19923;-83
2023/12/10 06:02:49;;;;;;;;;;;8.10;99.90;;;;;;5100101;28;19930;-84
2023/12/10 06:05:14;;;;;;;;;;;8.10;99.90;;;;;;5114330;28;19927;-84
2023/12/10 06:07:40;;;;;;;;;;;8.10;99.90;;;;;;5114558;27;20275;-83
2023/12/10 06:10:07;;;;;;;;;;;8.10;99.90;;;;;;5107340;27;20021;-83
2023/12/10 06:12:32;;;;;;;;;;;8.10;99.90;;;;;;5116409;27;19939;-86
2023/12/10 06:14:58;;;;;;;;;;;8.20;99.90;;;;;;5112642;27;19931;-83
2023/12/10 06:17:24;;;;;;;;;;;8.20;99.90;;;;;;5114698;27;19924;-85
2023/12/10 06:19:49;;;;;;;;;;;8.20;99.90;;;;;;5111930;27;20005;-88
2023/12/10 06:22:15;;;;;;;;;;;8.20;99.90;;;;;;5108706;27;19928;-85
2023/12/10 06:24:40;;;;;;;;;;;8.20;99.90;;;;;;5111959;27;19966;-85
2023/12/10 06:27:06;;;;;;;;;;;8.20;99.90;;;;;;5105105;27;20529;-83
2023/12/10 06:29:32;;;;;;;;;;;8.20;99.90;;;;;;5117799;27;19958;-85
2023/12/10 06:31:58;;;;;;;;;;;8.20;99.90;;;;;;5116457;27;19935;-84
2023/12/10 06:34:23;;;;;;;;;;;8.20;99.90;;;;;;5110176;27;19935;-83
2023/12/10 06:36:49;;;;;;;;;;;8.20;99.90;;;;;;5109411;27;19978;-85
2023/12/10 06:39:16;;;;;;;;;;;8.20;99.90;;;;;;5112709;27;19934;-88
2023/12/10 06:41:42;;;;;;;;;;;8.10;99.90;;;;;;5109901;27;19931;-84
2023/12/10 06:44:09;;;;;;;;;;;8.20;99.90;;;;;;5116300;27;19931;-83
2023/12/10 06:46:36;;;;;;;;;;;8.20;99.90;;;;;;5113504;27;19931;-84
2023/12/10 06:49:01;;;;;;;;;;;8.20;99.90;;;;;;5104826;27;19967;-85
2023/12/10 06:51:27;;;;;;;;;;;8.20;99.90;;;;;;5111023;27;19974;-84
2023/12/10 06:53:53;;;;;;;;;;;8.20;99.90;;;;;;5113008;27;19924;-84
2023/12/10 06:56:18;;;;;;;;;;;8.20;99.90;;;;;;5115314;27;20381;-83
2023/12/10 06:58:44;;;;;;;;;;;8.20;99.90;;;;;;5113302;27;19977;-85
2023/12/10 07:01:09;;;;;;;;;;;8.20;99.90;;;;;;5111011;27;20018;-83
2023/12/10 07:03:35;;;;;;;;;;;8.20;99.90;;;;;;5119636;27;19923;-86
2023/12/10 07:06:03;;;;;;;;;;;8.10;99.90;;;;;;5110649;27;20034;-87
2023/12/10 07:08:29;;;;;;;;;;;8.20;99.90;;;;;;5124471;27;19932;-88
2023/12/10 07:10:55;;;;;;;;;;;8.20;99.90;;;;;;5121511;27;20019;-84
2023/12/10 07:13:21;;;;;;;;;;;8.20;99.90;;;;;;5119567;27;20426;-85
2023/12/10 07:15:46;;;;;;;;;;;8.20;99.90;;;;;;5118163;27;19923;-85
2023/12/10 07:18:12;;;;;;;;;;;8.20;99.90;;;;;;5107538;28;20290;-83
2023/12/10 07:20:38;;;;;;;;;;;8.20;99.90;;;;;;5114351;28;20007;-86
2023/12/10 07:23:03;;;;;;;;;;;8.20;99.90;;;;;;5109454;28;20374;-86
2023/12/10 07:25:29;;;;;;;;;;;8.20;99.90;;;;;;5113854;28;19931;-84
2023/12/10 07:27:54;;;;;;;;;;;8.10;99.90;;;;;;5106779;28;19935;-83
2023/12/10 07:30:20;;;;;;;;;;;8.10;99.90;;;;;;5119159;28;20015;-83
2023/12/10 07:32:46;;;;;;;;;;;8.10;99.90;;;;;;5108218;28;19931;-85
2023/12/10 07:35:11;;;;;;;;;;;8.10;99.90;;;;;;5095209;28;19977;-84
2023/12/10 07:37:37;;;;;;;;;;;8.10;99.90;;;;;;5112164;28;19928;-84
2023/12/10 07:40:03;;;;;;;;;;;8.10;99.90;;;;;;5113194;28;19932;-85
2023/12/10 07:42:28;;;;;;;;;;;8.10;99.90;;;;;;5112989;28;19980;-83
2023/12/10 07:44:54;;;;;;;;;;;8.10;99.90;;;;;;5112388;28;19924;-85
2023/12/10 07:47:20;;;;;;;;;;;8.10;99.90;;;;;;5112207;28;20007;-82
2023/12/10 07:49:45;;;;;;;;;;;8.10;99.90;;;;;;5118474;27;19931;-83
2023/12/10 07:52:11;;;;;;;;;;;8.10;99.90;;;;;;5117220;28;19923;-85
2023/12/10 07:54:37;;;;;;;;;;;8.10;99.90;;;;;;5112823;28;19928;-85
2023/12/10 07:57:03;;;;;;;;;;;8.10;99.90;;;;;;5104691;28;19924;-84
2023/12/10 07:59:28;;;;;;;;;;;8.10;99.90;;;;;;5100386;28;19924;-87
2023/12/10 08:01:54;;;;;;;;;;;8.10;99.90;;;;;;5117154;28;19924;-83
2023/12/10 08:04:20;;;;;;;;;;;8.10;99.90;;;;;;5117921;28;20010;-85
2023/12/10 08:06:45;;;;;;;;;;;8.10;99.90;;;;;;5120290;27;19924;-83
2023/12/10 08:09:11;;;;;;;;;;;8.10;99.90;;;;;;5109761;28;20401;-84
2023/12/10 08:11:36;;;;;;;;;;;8.10;99.90;;;;;;5115430;28;19980;-84
2023/12/10 08:14:02;;;;;;;;;;;8.10;99.90;;;;;;5104304;28;20007;-84
2023/12/10 08:16:28;;;;;;;;;;;8.10;99.90;;;;;;5109547;27;19953;-93
2023/12/10 08:18:53;;;;;;;;;;;8.10;99.90;;;;;;5120836;27;19992;-84
2023/12/10 08:21:19;;;;;;;;;;;8.00;99.90;;;;;;5108405;27;20022;-83
2023/12/10 08:23:45;;;;;;;;;;;8.00;99.90;;;;;;5113172;27;20006;-83
2023/12/10 08:26:10;;;;;;;;;;;8.00;99.90;;;;;;5114873;27;20294;-83
2023/12/10 08:28:36;;;;;;;;;;;8.00;99.90;;;;;;5111861;27;20010;-84
2023/12/10 08:31:01;;;;;;;;;;;8.00;99.90;;;;;;5096427;28;19927;-83
2023/12/10 08:33:27;;;;;;;;;;;8.00;99.90;;;;;;5114272;27;20056;-82
2023/12/10 08:35:53;;;;;;;;;;;8.00;99.90;;;;;;5113628;27;20015;-85
2023/12/10 08:38:18;;;;;;;;;;;8.10;99.90;;;;;;5116598;27;20336;-84
2023/12/10 08:40:44;;;;;;;;;;;8.10;99.90;;;;;;5094493;28;19924;-84
2023/12/10 08:43:10;;;;;;;;;;;8.10;99.90;;;;;;5116463;28;19982;-84
2023/12/10 08:45:35;;;;;;;;;;;8.10;99.90;;;;;;5116032;28;19930;-84
2023/12/10 08:48:01;;;;;;;;;;;8.10;99.90;;;;;;5103956;28;19927;-83
2023/12/10 08:50:26;;;;;;;;;;;8.10;99.90;;;;;;5112871;28;20007;-89
2023/12/10 08:52:52;;;;;;;;;;;8.10;99.90;;;;;;5120302;27;20014;-85
2023/12/10 08:55:18;;;;;;;;;;;8.10;99.90;;;;;;5107724;27;19924;-85
2023/12/10 08:57:44;;;;;;;;;;;8.00;99.90;;;;;;5111494;27;20034;-88
2023/12/10 09:00:11;;;;;;;;;;;8.00;99.90;;;;;;5108239;28;19924;-87
2023/12/10 09:02:37;;;;;;;;;;;8.00;99.90;;;;;;5119045;27;20267;-85
2023/12/10 09:05:02;;;;;;;;;;;8.00;99.90;;;;;;5120546;27;19983;-90
2023/12/10 09:07:29;;;;;;;;;;;8.00;99.90;;;;;;5110708;27;19924;-86
2023/12/10 09:09:59;;;;;;;;;;;8.00;99.90;;;;;;5119927;27;21784;-85
2023/12/10 09:12:28;;;;;;;;;;;8.00;99.90;;;;;;5112474;28;19930;-84
2023/12/10 09:14:54;;;;;;;;;;;8.00;99.90;;;;;;5111073;27;19923;-85
2023/12/10 09:17:20;;;;;;;;;;;8.00;99.90;;;;;;5115244;27;19924;-85
2023/12/10 09:19:45;;;;;;;;;;;8.00;99.90;;;;;;5103787;28;20375;-84
2023/12/10 09:22:11;;;;;;;;;;;8.00;99.90;;;;;;5115567;27;19932;-86
2023/12/10 09:24:37;;;;;;;;;;;8.10;99.90;;;;;;5114918;28;19931;-83
2023/12/10 09:27:03;;;;;;;;;;;8.10;99.90;;;;;;5099756;28;19928;-85
2023/12/10 09:29:29;;;;;;;;;;;8.10;99.90;;;;;;5113179;28;19924;-84
2023/12/10 09:31:54;;;;;;;;;;;8.10;99.90;;;;;;5092835;28;19924;-85
2023/12/10 09:34:20;;;;;;;;;;;8.10;99.90;;;;;;5147947;27;19946;-84
2023/12/10 09:36:45;;;;;;;;;;;8.10;99.90;;;;;;5113856;28;20022;-83
2023/12/10 09:39:11;;;;;;;;;;;8.10;99.90;;;;;;5114687;28;19924;-83
2023/12/10 09:41:37;;;;;;;;;;;8.10;99.90;;;;;;5114503;28;19935;-87
2023/12/10 09:44:02;;;;;;;;;;;8.10;99.90;;;;;;5090385;28;19924;-84
2023/12/10 09:46:29;;;;;;;;;;;8.10;99.90;;;;;;5124760;27;19927;-86
2023/12/10 09:48:55;;;;;;;;;;;8.10;99.90;;;;;;5110536;27;20282;-85
2023/12/10 09:51:21;;;;;;;;;;;8.10;99.90;;;;;;5115853;27;19928;-89
2023/12/10 09:53:48;;;;;;;;;;;8.10;99.90;;;;;;5110442;27;19923;-90
2023/12/10 09:56:13;;;;;;;;;;;8.10;99.90;;;;;;5116481;27;19959;-85
2023/12/10 09:58:39;;;;;;;;;;;8.10;99.90;;;;;;5115969;27;19924;-87
2023/12/10 10:01:08;;;;;;;;;;;8.10;99.90;;;;;;5114935;27;19927;-87
2023/12/10 10:03:37;;;;;;;;;;;8.10;99.90;;;;;;5089361;28;19981;-83
2023/12/10 10:06:02;;;;;;;;;;;8.20;99.90;;;;;;5140917;27;20018;-85
2023/12/10 10:08:28;;;;;;;;;;;8.20;99.90;;;;;;5113353;28;20022;-86
2023/12/10 10:10:57;;;;;;;;;;;8.20;99.90;;;;;;5133246;27;19928;-85
2023/12/10 10:13:23;;;;;;;;;;;8.30;99.90;;;;;;5095499;28;19928;-85
2023/12/10 10:15:48;;;;;;;;;;;8.30;99.90;;;;;;5102651;28;19929;-86
2023/12/10 10:18:14;;;;;;;;;;;8.30;99.90;;;;;;5112478;28;20014;-86
2023/12/10 10:20:41;;;;;;;;;;;8.30;99.90;;;;;;5097377;27;19930;-85
2023/12/10 10:23:08;;;;;;;;;;;8.30;99.90;;;;;;5102658;27;19928;-85
2023/12/10 10:25:34;;;;;;;;;;;8.40;99.90;;;;;;5089816;28;20019;-85
2023/12/10 10:27:59;;;;;;;;;;;8.40;99.90;;;;;;5107928;28;20039;-86
2023/12/10 10:30:25;;;;;;;;;;;8.40;99.90;;;;;;5110956;28;19932;-87
2023/12/10 10:32:51;;;;;;;;;;;8.40;99.90;;;;;;5103168;28;19928;-86
2023/12/10 10:35:17;;;;;;;;;;;8.40;99.90;;;;;;5089957;28;19976;-86
2023/12/10 10:37:42;;;;;;;;;;;8.40;99.90;;;;;;5118261;27;20049;-89
2023/12/10 10:40:08;;;;;;;;;;;8.40;99.90;;;;;;5110672;27;19924;-87
2023/12/10 10:42:34;;;;;;;;;;;8.40;99.90;;;;;;5112735;27;19963;-86
2023/12/10 10:45:00;;;;;;;;;;;8.40;99.90;;;;;;5114336;28;20012;-85
2023/12/10 10:47:26;;;;;;;;;;;8.40;99.90;;;;;;5096965;28;19925;-87
2023/12/10 10:49:56;;;;;;;;;;;8.40;99.90;;;;;;5102801;28;19924;-87
2023/12/10 10:52:26;;;;;;;;;;;8.40;99.90;;;;;;5106886;28;19924;-86
2023/12/10 10:54:53;;;;;;;;;;;8.40;99.90;;;;;;5112218;27;19967;-85
2023/12/10 10:57:29;;;;;;;;;;;8.50;99.90;;;;;;5101330;27;19931;-86
2023/12/10 10:59:54;;;;;;;;;;;8.50;99.90;;;;;;5110831;27;19935;-88
2023/12/10 11:02:20;;;;;;;;;;;8.50;99.90;;;;;;5110257;27;20390;-88
2023/12/10 11:04:49;;;;;;;;;;;8.50;99.90;;;;;;5111981;27;19931;-87
2023/12/10 11:07:15;;;;;;;;;;;8.50;99.90;;;;;;5086974;28;20014;-86
2023/12/10 11:10:02;;;;;;;;;;;8.50;99.90;;;;;;5105927;27;19924;-88
2023/12/10 11:12:44;;;;;;;;;;;8.50;99.90;;;;;;5100784;27;19954;-85
2023/12/10 11:15:21;;;;;;;;;;;8.60;99.90;;;;;;5093014;28;19930;-84
2023/12/10 11:17:59;;;;;;;;;;;8.70;99.90;;;;;;5109563;27;20006;-87
2023/12/10 11:20:35;;;;;;;;;;;8.70;99.90;;;;;;5103278;28;20028;-87
2023/12/10 11:23:11;;;;;;;;;;;8.70;99.90;;;;;;5104194;28;19931;-84
2023/12/10 11:25:38;;;;;;;;;;;8.80;99.90;;;;;;5112016;28;19924;-85
2023/12/10 11:28:10;;;;;;;;;;;8.80;99.90;;;;;;5102185;28;19924;-84
2023/12/10 11:30:36;;;;;;;;;;;8.80;99.90;;;;;;5105256;28;19935;-87
2023/12/10 11:33:02;;;;;;;;;;;8.90;99.90;;;;;;5105946;28;19965;-84
2023/12/10 11:35:27;;;;;;;;;;;8.90;99.90;;;;;;5103170;28;19932;-83
2023/12/10 11:37:53;;;;;;;;;;;8.90;99.90;;;;;;5103075;28;19939;-89
2023/12/10 11:40:19;;;;;;;;;;;8.90;99.90;;;;;;5130838;27;19963;-88
2023/12/10 11:42:44;;;;;;;;;;;9.00;99.90;;;;;;5099084;28;19980;-90
2023/12/10 11:45:13;;;;;;;;;;;9.10;99.90;;;;;;5106288;28;19963;-84
2023/12/10 11:47:40;;;;;;;;;;;9.10;99.90;;;;;;5116801;28;19932;-86
2023/12/10 11:50:06;;;;;;;;;;;9.10;99.90;;;;;;5095089;28;19928;-85
2023/12/10 11:52:32;;;;;;;;;;;9.00;99.90;;;;;;5112504;28;19930;-86
2023/12/10 11:54:58;;;;;;;;;;;8.90;99.90;;;;;;5107170;28;20305;-84
2023/12/10 11:57:23;;;;;;;;;;;8.90;99.90;;;;;;5103061;28;19959;-85
2023/12/10 11:59:49;;;;;;;;;;;8.80;99.90;;;;;;5110014;28;19935;-84
2023/12/10 12:02:15;;;;;;;;;;;8.80;99.90;;;;;;5113521;28;19927;-87
2023/12/10 12:04:43;;;;;;;;;;;8.80;99.90;;;;;;5108830;28;19924;-88
2023/12/10 12:07:22;;;;;;;;;;;8.90;99.90;;;;;;5080673;28;20381;-84
2023/12/10 12:09:47;;;;;;;;;;;8.90;99.90;;;;;;5113190;28;19931;-87
2023/12/10 12:12:13;;;;;;;;;;;8.90;99.90;;;;;;5110418;28;20290;-87
2023/12/10 12:14:39;;;;;;;;;;;9.00;99.90;;;;;;5107350;28;20021;-86
2023/12/10 12:17:05;;;;;;;;;;;8.90;99.90;;;;;;5108548;28;20065;-87
2023/12/10 12:19:31;;;;;;;;;;;8.90;99.90;;;;;;5111831;28;19969;-84
2023/12/10 12:21:59;;;;;;;;;;;9.00;99.90;;;;;;5104378;28;20300;-85
2023/12/10 12:24:25;;;;;;;;;;;8.90;99.90;;;;;;5129046;27;19931;-84
2023/12/10 12:26:51;;;;;;;;;;;8.90;99.90;;;;;;5101286;28;19924;-86
2023/12/10 12:29:17;;;;;;;;;;;8.90;99.90;;;;;;5111519;28;19955;-84
2023/12/10 12:31:43;;;;;;;;;;;8.90;99.90;;;;;;5111156;28;19962;-86
2023/12/10 12:34:08;;;;;;;;;;;8.80;99.90;;;;;;5075010;28;20379;-84
2023/12/10 12:36:34;;;;;;;;;;;8.80;99.90;;;;;;5112619;28;19988;-83
2023/12/10 12:39:01;;;;;;;;;;;8.80;99.90;;;;;;5115514;28;19928;-84
2023/12/10 12:41:27;;;;;;;;;;;8.80;99.90;;;;;;5115112;28;19931;-84
2023/12/10 12:43:52;;;;;;;;;;;8.80;99.90;;;;;;5097821;28;19924;-86
2023/12/10 12:46:18;;;;;;;;;;;8.80;99.90;;;;;;5114789;28;20018;-85
2023/12/10 12:48:44;;;;;;;;;;;8.80;99.90;;;;;;5119836;27;19985;-87
2023/12/10 12:51:09;;;;;;;;;;;8.80;99.90;;;;;;5101731;27;20053;-85
2023/12/10 12:53:35;;;;;;;;;;;8.80;99.90;;;;;;5117154;27;19924;-85
2023/12/10 12:56:01;;;;;;;;;;;8.70;99.90;;;;;;5114781;28;19928;-83
2023/12/10 12:58:27;;;;;;;;;;;8.70;99.90;;;;;;5122020;27;19923;-83
2023/12/10 13:00:52;;;;;;;;;;;8.70;99.90;;;;;;5100935;27;19931;-84
2023/12/10 13:03:21;;;;;;;;;;;8.70;99.90;;;;;;5121327;27;19928;-84
2023/12/10 13:05:46;;;;;;;;;;;8.70;99.90;;;;;;5101021;28;19990;-86
2023/12/10 13:08:13;;;;;;;;;;;8.80;99.90;;;;;;5115630;28;19924;-85
2023/12/10 13:10:38;;;;;;;;;;;8.70;99.90;;;;;;5115287;28;19924;-85
2023/12/10 13:13:04;;;;;;;;;;;8.70;99.90;;;;;;5115049;28;19927;-88
2023/12/10 13:15:30;;;;;;;;;;;8.70;99.90;;;;;;5097003;28;19930;-86
2023/12/10 13:17:56;;;;;;;;;;;8.70;99.90;;;;;;5113350;28;19924;-84
2023/12/10 13:20:22;;;;;;;;;;;8.70;99.90;;;;;;5114294;28;19928;-86
2023/12/10 13:22:48;;;;;;;;;;;8.70;99.90;;;;;;5097289;28;20018;-85
2023/12/10 13:25:14;;;;;;;;;;;8.70;99.90;;;;;;5115595;27;20010;-83
2023/12/10 13:27:40;;;;;;;;;;;8.70;99.90;;;;;;5113817;27;19924;-83
2023/12/10 13:30:05;;;;;;;;;;;8.70;99.90;;;;;;5106347;28;19969;-84
2023/12/10 13:32:31;;;;;;;;;;;8.70;99.90;;;;;;5116102;27;20425;-83
2023/12/10 13:34:58;;;;;;;;;;;8.70;99.90;;;;;;5114408;27;20366;-84
2023/12/10 13:37:23;;;;;;;;;;;8.70;99.90;;;;;;5113433;28;19924;-84
2023/12/10 13:39:49;;;;;;;;;;;8.70;99.90;;;;;;5113859;28;19969;-83
2023/12/10 13:42:15;;;;;;;;;;;8.70;99.90;;;;;;5114783;27;19981;-83
2023/12/10 13:44:40;;;;;;;;;;;8.80;99.90;;;;;;5109857;27;20014;-82
2023/12/10 13:47:08;;;;;;;;;;;8.80;99.90;;;;;;5111284;28;19931;-82
2023/12/10 13:49:34;;;;;;;;;;;8.80;99.90;;;;;;5126702;27;19968;-82
2023/12/10 13:52:00;;;;;;;;;;;8.80;99.90;;;;;;5123255;27;20370;-83
2023/12/10 13:54:29;;;;;;;;;;;8.80;99.90;;;;;;5107879;27;19931;-83
2023/12/10 13:56:54;;;;;;;;;;;8.80;99.90;;;;;;5112420;28;19923;-82
2023/12/10 13:59:20;;;;;;;;;;;8.70;99.90;;;;;;5119974;27;19931;-87
2023/12/10 14:01:45;;;;;;;;;;;8.60;99.90;;;;;;5116284;28;19997;-83
2023/12/10 14:04:11;;;;;;;;;;;8.60;99.90;;;;;;5113251;28;19928;-85
2023/12/10 14:06:36;;;;;;;;;;;8.50;99.90;;;;;;5113442;28;19924;-82
2023/12/10 14:09:04;;;;;;;;;;;8.40;99.90;;;;;;5095977;28;20363;-83
2023/12/10 14:11:30;;;;;;;;;;;8.30;99.90;;;;;;5111410;28;19927;-83
2023/12/10 14:13:56;;;;;;;;;;;8.30;99.90;;;;;;5114267;27;19946;-82
2023/12/10 14:16:21;;;;;;;;;;;8.20;99.90;;;;;;5110383;27;20027;-83
2023/12/10 14:18:48;;;;;;;;;;;8.20;99.90;;;;;;5117430;27;20774;-83
2023/12/10 14:21:14;;;;;;;;;;;8.20;99.90;;;;;;5113810;28;20487;-82
2023/12/10 14:23:42;;;;;;;;;;;8.20;99.90;;;;;;5113864;28;20006;-84